• Join FlightAware (Why Join?)
  • Login
  • US Flag 
11:02AM EDT


 

Airport Tracker/Info


-or-


 

Live Flight TrackerFlight Track Log ✈ TAM3447 ✈ 22-Sep-2013 ✈ SBBE / BEL - SBBR / BSB

Flight Track Log - Related Links

Times and Time Zones

All times are in EDT time to prevent confusion due to time zone crossing. See the TAM3447 flight status page for this flight to view local times or setup timezone preferences in your user account.

Time Position Orientation Groundspeed Altitude Reporting Facility
EDT Latitude Longitude Course Direction KTS MPH feet Rate Location/Type
08:36PM -1.3550 -48.4420 59° Northeast 169 194 1,800  Level FlightAware
08:36PM -1.3460 -48.4260 61° Northeast 169 194 1,800 1,560 Level FlightAware
08:36PM -1.3800 -48.4170 165° South 226 260 2,700 5,280 Climbing FlightAware
08:36PM -1.3950 -48.4160 176° South 273 314 3,400 3,300 Climbing FlightAware
08:37PM -1.4220 -48.4180 184° South 278 320 4,700 3,840 Climbing FlightAware
08:37PM -1.4550 -48.4210 185° South 272 313 6,500 2,160 Climbing FlightAware
08:38PM -1.4830 -48.4240 186° South 272 313 6,500 2,280 Level FlightAware
08:38PM -1.4550 -48.4210 North 272 313 8,100 2,160 Climbing FlightAware
08:38PM -1.4850 -48.4240 186° South 272 313 8,100 2,040 Level FlightAware
08:39PM -1.4860 -48.4240 180° South 278 320 10,600 1,860 Climbing FlightAware
08:40PM -1.5250 -48.4270 184° South 278 320 10,600 2,100 Level FlightAware
08:40PM -1.4880 -48.4230 North 300 345 13,300 2,100 Climbing FlightAware
08:41PM -1.5310 -48.4260 184° South 300 345 13,300  Level FlightAware
08:42PM -1.5730 -48.4290 184° South 300 345 13,300 420 Level FlightAware
08:44PM -1.7600 -48.4224 178° South  Level Estimated
08:45PM -1.8535 -48.4191 178° South  Level Estimated
08:46PM -1.9470 -48.4159 178° South  Level Estimated
08:47PM -2.0405 -48.4126 178° South  Level Estimated
08:48PM -2.1340 -48.4093 178° South  Level Estimated
08:49PM -2.2275 -48.4060 178° South  Level Estimated
08:50PM -2.3210 -48.4027 178° South  Level Estimated
08:51PM -2.4145 -48.3994 178° South  Level Estimated
08:52PM -2.5080 -48.3961 178° South  Level Estimated
08:53PM -2.6015 -48.3928 178° South  Level Estimated
08:54PM -2.6950 -48.3895 178° South  Level Estimated
08:55PM -2.7885 -48.3862 178° South  Level Estimated
08:56PM -2.8820 -48.3829 178° South  Level Estimated
08:57PM -2.9755 -48.3797 178° South  Level Estimated
08:58PM -3.0690 -48.3764 178° South  Level Estimated
08:59PM -3.1625 -48.3731 178° South  Level Estimated
09:00PM -3.2560 -48.3698 178° South  Level Estimated
09:01PM -3.3495 -48.3665 178° South  Level Estimated
09:02PM -3.4430 -48.3632 178° South  Level Estimated
09:03PM -3.5365 -48.3599 178° South  Level Estimated
09:04PM -3.6300 -48.3566 178° South  Level Estimated
09:05PM -3.7235 -48.3533 178° South  Level Estimated
09:06PM -3.8170 -48.3500 178° South  Level Estimated
09:07PM -3.9105 -48.3467 178° South  Level Estimated
09:08PM -4.0040 -48.3434 178° South  Level Estimated
09:09PM -4.0975 -48.3401 178° South  Level Estimated
09:10PM -4.1910 -48.3368 178° South  Level Estimated
09:11PM -4.2845 -48.3335 178° South  Level Estimated
09:12PM -4.3780 -48.3302 178° South  Level Estimated
09:13PM -4.4715 -48.3269 178° South  Level Estimated
09:14PM -4.5650 -48.3236 178° South  Level Estimated
09:15PM -4.6585 -48.3203 178° South  Level Estimated
09:16PM -4.7520 -48.3170 178° South  Level Estimated
09:17PM -4.8455 -48.3137 178° South  Level Estimated
09:18PM -4.9390 -48.3104 178° South  Level Estimated
09:19PM -5.0350 -48.3070 178° South  Level Estimated
09:20PM -5.1309 -48.3036 178° South  Level Estimated
09:21PM -5.2269 -48.3002 178° South  Level Estimated
09:22PM -5.3229 -48.2968 178° South  Level Estimated
09:23PM -5.4188 -48.2934 178° South  Level Estimated
09:24PM -5.5148 -48.2900 178° South  Level Estimated
09:25PM -5.6108 -48.2866 178° South  Level Estimated
09:26PM -5.7068 -48.2832 178° South  Level Estimated
09:27PM -5.8027 -48.2798 178° South  Level Estimated
09:28PM -5.8987 -48.2764 178° South  Level Estimated
09:29PM -5.9947 -48.2730 178° South  Level Estimated
09:30PM -6.0906 -48.2696 178° South  Level Estimated
09:31PM -6.1866 -48.2662 178° South  Level Estimated
09:32PM -6.2826 -48.2628 178° South  Level Estimated
09:33PM -6.3786 -48.2594 178° South  Level Estimated
09:34PM -6.4745 -48.2560 178° South  Level Estimated
09:35PM -6.5705 -48.2525 178° South  Level Estimated
09:36PM -6.6665 -48.2491 178° South  Level Estimated
09:37PM -6.7624 -48.2457 178° South  Level Estimated
09:37PM -8.4590 -48.4640 178° South 425 489 39,000  Level FlightAware
09:38PM -6.8584 -48.2423 178° South  Level Estimated
09:38PM -8.5160 -48.4610 177° South 425 489 39,000  Level FlightAware
09:39PM -8.6140 -48.4550 177° South 425 489 39,000  Level FlightAware
09:40PM -8.6940 -48.4500 176° South 425 489 39,000  Level FlightAware
09:40PM -8.7670 -48.4460 177° South 425 489 39,000  Level FlightAware
09:41PM -8.8430 -48.4420 177° South 423 487 39,000  Level FlightAware
09:42PM -8.9440 -48.4360 177° South 423 487 39,000  Level FlightAware
09:42PM -9.0470 -48.4300 177° South 422 486 39,000  Level FlightAware
09:43PM -9.1000 -48.4270 177° South 422 486 39,000  Level FlightAware
09:43PM -9.1730 -48.4230 177° South 422 486 39,000  Level FlightAware
09:44PM -9.2610 -48.4180 177° South 421 484 39,000  Level FlightAware
09:45PM -9.3250 -48.4140 176° South 421 484 39,000  Level FlightAware
09:45PM -9.3950 -48.4100 177° South 420 483 39,000  Level FlightAware
09:46PM -9.4700 -48.4060 177° South 420 483 39,000  Level FlightAware
09:47PM -9.5310 -48.4020 176° South 421 484 39,000  Level FlightAware
09:47PM -9.6170 -48.3970 177° South 420 483 39,000  Level FlightAware
09:48PM -9.6680 -48.3940 177° South 420 483 39,000  Level FlightAware
09:48PM -9.7440 -48.3900 177° South 420 483 39,000  Level FlightAware
09:49PM -9.8720 -48.3830 177° South 419 482 39,000  Level FlightAware
09:50PM -9.9350 -48.3790 176° South 419 482 39,000  Level FlightAware
09:51PM -10.0030 -48.3740 176° South 418 481 39,000  Level FlightAware
09:51PM -10.0720 -48.3710 178° South 418 481 39,000  Level FlightAware
09:52PM -10.1310 -48.3670 176° South 418 481 39,000  Level FlightAware
09:53PM -10.1040 -48.3730 348° North 419 482 39,000  Level FlightAware
09:53PM -10.0840 -48.3780 346° North 420 483 39,000  Level FlightAware
09:55PM -10.0860 -48.3780 180° South 421 484 39,000  Level FlightAware
09:56PM -10.5740 -48.4150 184° South 418 481 39,000  Level FlightAware
09:56PM -10.6550 -48.4210 184° South 418 481 39,000  Level FlightAware
09:57PM -10.7390 -48.4270 184° South 419 482 39,000  Level FlightAware
09:57PM -10.7980 -48.4320 185° South 420 483 39,000  Level FlightAware
09:58PM -10.7980 -48.4320 185° South 422 486 39,000  Level FlightAware
09:59PM -10.9230 -48.4410 184° South 423 487 39,000  Level FlightAware
09:59PM -11.0080 -48.4480 185° South 423 487 39,000  Level FlightAware
10:00PM -11.0580 -48.4510 183° South 422 486 39,000  Level FlightAware
10:00PM -11.1450 -48.4580 185° South 422 486 39,000  Level FlightAware
10:01PM -11.2170 -48.4630 184° South 422 486 39,000  Level FlightAware
10:02PM -11.2860 -48.4680 184° South 422 486 39,000  Level FlightAware
10:02PM -11.3640 -48.4740 184° South 423 487 39,000  Level FlightAware
10:03PM -11.4460 -48.4800 184° South 423 487 39,000  Level FlightAware
10:04PM -11.5080 -48.4850 185° South 423 487 39,000  Level FlightAware
10:04PM -11.5830 -48.4910 184° South 424 488 39,000  Level FlightAware
10:05PM -11.6520 -48.4960 184° South 426 490 39,000  Level FlightAware
10:05PM -11.7200 -48.5010 184° South 427 491 39,000  Level FlightAware
10:06PM -11.7930 -48.5060 184° South 427 491 39,000  Level FlightAware
10:07PM -11.8540 -48.5110 185° South 427 491 39,000  Level FlightAware
10:07PM -11.9140 -48.5150 184° South 427 491 39,000  Level FlightAware
10:07PM -11.7500 -48.5030 North 39,000  Level FlightAware
10:10PM -11.9434 -48.4757 172° South  Level Estimated
10:11PM -12.0386 -48.4622 172° South  Level Estimated
10:12PM -12.1337 -48.4488 172° South  Level Estimated
10:13PM -12.2288 -48.4353 172° South  Level Estimated
10:14PM -12.3239 -48.4218 172° South  Level Estimated
10:15PM -12.4191 -48.4083 172° South  Level Estimated
10:16PM -12.5142 -48.3948 172° South  Level Estimated
10:17PM -12.6093 -48.3813 172° South  Level Estimated
10:18PM -12.7044 -48.3678 172° South  Level Estimated
10:19PM -12.7996 -48.3543 172° South  Level Estimated
10:20PM -12.8947 -48.3407 172° South  Level Estimated
10:21PM -12.9898 -48.3272 172° South  Level Estimated
10:22PM -13.0849 -48.3136 172° South  Level Estimated
10:23PM -13.1800 -48.3000 172° South  Level Estimated
10:24PM -13.2752 -48.2865 172° South  Level Estimated
10:25PM -13.3703 -48.2729 172° South  Level Estimated
10:26PM -13.4654 -48.2593 172° South  Level Estimated
10:26PM -14.2080 -48.6900 172° South 426 490 39,000  Level FlightAware
10:27PM -14.2810 -48.6960 185° South 427 491 39,000  Level FlightAware
10:27PM -14.3350 -48.7000 184° South 427 491 39,000  Level FlightAware
10:28PM -14.4200 -48.7070 185° South 427 491 39,000  Level FlightAware
10:29PM -14.4890 -48.7120 184° South 428 493 39,000  Level FlightAware
10:29PM -14.5600 -48.7180 185° South 427 491 39,000  Level FlightAware
10:30PM -14.6390 -48.7240 184° South 427 491 39,000  Level FlightAware
10:30PM -14.7000 -48.7280 184° South 425 489 39,000  Level FlightAware
10:31PM -14.7720 -48.7340 185° South 414 476 39,000  Level FlightAware
10:32PM -14.8570 -48.7400 184° South 414 476 39,000  Level FlightAware
10:32PM -14.9240 -48.7460 185° South 415 478 39,000 -120 Level FlightAware
10:33PM -14.9920 -48.7510 184° South 416 479 38,900 -720 Descending FlightAware
10:34PM -15.0560 -48.7560 184° South 404 465 38,200 -2,160 Descending FlightAware
10:34PM -15.1240 -48.7610 184° South 411 473 36,400 -3,120 Descending FlightAware
10:35PM -15.1910 -48.7660 184° South 422 486 34,600 -3,240 Descending FlightAware
10:35PM -15.2480 -48.7710 185° South 428 493 32,900 -3,480 Descending FlightAware
10:36PM -15.2880 -48.7670 174° South 431 496 31,700 -3,780 Descending FlightAware
10:36PM -15.3190 -48.7570 163° South 435 501 30,700 -3,000 Descending FlightAware
10:36PM -15.3430 -48.7430 151° Southeast 434 499 30,200 -1,500 Descending FlightAware
10:36PM -15.3750 -48.7160 141° Southeast 417 480 29,800 -1,320 Descending FlightAware
10:37PM -15.4090 -48.6710 128° Southeast 400 460 29,100 -2,340 Descending FlightAware
10:37PM -15.4480 -48.6150 126° Southeast 386 444 27,200 -3,420 Descending FlightAware
10:38PM -15.4780 -48.5730 127° Southeast 379 436 25,400 -3,180 Descending FlightAware
10:39PM -15.5230 -48.5100 127° Southeast 379 436 23,500 -2,520 Descending FlightAware
10:39PM -15.5590 -48.4600 127° Southeast 374 430 22,300 -2,160 Descending FlightAware
10:40PM -15.5960 -48.4070 126° Southeast 370 426 21,000 -2,580 Descending FlightAware
10:40PM -15.6310 -48.3570 126° Southeast 380 437 19,300 -2,580 Descending FlightAware
10:41PM -15.6680 -48.3050 126° Southeast 376 433 18,000 -2,160 Descending FlightAware
10:42PM -15.7030 -48.2550 126° Southeast 371 427 16,800 -2,100 Descending FlightAware
10:42PM -15.7390 -48.2040 126° Southeast 364 419 15,600 -1,800 Descending FlightAware
10:43PM -15.7700 -48.1550 123° Southeast 351 404 14,700 -1,380 Descending FlightAware
10:43PM -15.7740 -48.1390 105° East 346 398 14,600 -1,080 Descending FlightAware
10:43PM -15.7640 -48.0920 78° East 330 380 14,000 -1,380 Descending FlightAware
10:44PM -15.7470 -48.0470 69° East 323 372 13,200 -960 Descending FlightAware
10:44PM -15.7300 -48.0020 69° East 296 341 13,000 -180 Descending FlightAware
10:45PM -15.7120 -47.9520 70° East 282 325 13,000  Level FlightAware
10:46PM -15.7010 -47.9040 77° East 280 322 13,000 -720 Level FlightAware
10:46PM -15.6900 -47.8610 75° East 282 325 12,200 -1,980 Descending FlightAware
10:47PM -15.6800 -47.8160 77° East 279 321 10,800 -2,340 Descending FlightAware
10:47PM -15.6880 -47.7920 109° East 281 323 10,100 -2,280 Descending FlightAware
10:47PM -15.7040 -47.7690 126° Southeast 282 325 9,300 -2,040 Descending FlightAware
10:48PM -15.7150 -47.7530 126° Southeast 279 321 8,900 -1,200 Descending FlightAware
10:48PM -15.7290 -47.7330 126° Southeast 262 302 8,600 -900 Descending FlightAware
10:48PM -15.7390 -47.7180 125° Southeast 252 290 8,400 -960 Descending FlightAware
10:48PM -15.7480 -47.7080 133° Southeast 245 282 8,200 -840 Descending FlightAware
10:49PM -15.7520 -47.7050 144° Southeast 243 280 8,200 -780 Level FlightAware
10:49PM -15.7610 -47.7020 162° South 239 275 8,000 -1,200 Descending FlightAware
10:49PM -15.7680 -47.7010 172° South 234 269 7,900 -780 Descending FlightAware
10:49PM -15.7860 -47.7060 195° South 218 251 7,700 -900 Descending FlightAware
10:49PM -15.8070 -47.7130 198° South 212 244 7,300 -1,200 Descending FlightAware
10:50PM -15.8260 -47.7180 194° South 211 243 6,900 -1,200 Descending FlightAware
10:50PM -15.8530 -47.7270 198° South 212 244 6,300 -1,200 Descending FlightAware
10:50PM -15.8620 -47.7320 208° Southwest 206 237 6,100 -840 Descending FlightAware
10:51PM -15.8650 -47.7360 232° Southwest 196 226 6,100 -600 Level FlightAware
10:51PM -15.8660 -47.7400 255° West 188 216 6,000 -840 Descending FlightAware
10:51PM -15.8680 -47.7480 255° West 177 204 5,900 -480 Descending FlightAware
10:51PM -15.8690 -47.7610 265° West 163 188 5,800 -540 Descending FlightAware
10:51PM -15.8700 -47.7750 266° West 151 174 5,600 -780 Descending FlightAware
10:52PM -15.8710 -47.7890 266° West 144 166 5,300 -780 Descending FlightAware
10:52PM -15.8720 -47.8020 265° West 138 159 5,100 -720 Descending FlightAware
10:52PM -15.8730 -47.8180 266° West 135 155 4,800 -720 Descending FlightAware
10:53PM -15.8730 -47.8260 270° West 135 155 4,700 -600 Descending FlightAware
10:53PM -15.8740 -47.8390 265° West 136 157 4,500 -720 Descending FlightAware
10:53PM -15.8750 -47.8550 266° West 137 158 4,200 -660 Descending FlightAware
10:54PM -15.8760 -47.8670 265° West 135 155 4,000 -720 Descending FlightAware
10:54PM -15.8770 -47.8750 263° West 136 157 3,800 -780 Descending FlightAware
10:54PM -15.8780 -47.8930 267° West 137 158 3,500 -660 Descending FlightAware
10:55PM -15.8790 -47.9080 266° West 142 163 3,300 -480 Descending FlightAware
10:55PM -15.8790 -47.9200 270° West 140 161 3,200 -180 Descending FlightAware
10:56PM -15.8800 -47.9360 266° West 140 161 3,200  Level FlightAware
10:58PM -15.8626 -47.9127 52° Northeast  Level Estimated
10:58PM -15.8770 -47.9200 52° Northeast 3,300  Level FlightAware